Powassan, Canada
Current Conditions -  °F | °C
As of 12:00 PM on Tuesday 27 Jan 2015 (Local Time) from CYYB Reporting Station
Few Clouds Few Clouds  
Wind Chill: -6°   Ceiling: Unl
Heat Index:   Visibility: 30mi
Dew Point: -6°   Wind: 8mph
Humidity: 56%   Direction: 60°ENE
Pressure: 30.13"   Gusts: NA
Location:  46.08°N, 79.36°W
Report Text: CYYB 271700Z 06007KT 30SM FEW280 M14/M21 A3013 RMK CI1 SLP237
Loading
Personal Weather Stations






























Interactive Weather Map New forecast layout! Learn more

10-Day Weather Forecast

Advertisements
Track Severe Weather on mobile